Opa-locka, FL

11:34 AM EST on February 21, 2017 (GMT -0500)
Opa Locka | | Change Station

Elev 7 ft 25.91 °N, 80.28 °W | Updated 41 minutes ago

Overcast
Overcast
77 °F
Feels Like 77 °F
N
13
Wind Variable Wind from ENE

Today
High -- | Low -- °F
--% Chance of Precip.
Yesterday
High -- | Low -- °F
Precip. -- in
Pressure 30.10 in
Visibility 10.0 miles
Clouds Mostly Cloudy 3500 ft
Overcast 5500 ft
Dew Point 61 °F
Humidity 58%
Rainfall 0.00 in
Snow Depth Not available.
6:51 AM 6:18 PM
Waning Crescent, 24% visible
METAR KOPF 211553Z 06011KT 10SM BKN035 OVC055 25/16 A3010 RMK AO2 SLP193 T02500161
Pressure 30.10 in
Visibility 10.0 miles
Clouds Mostly Cloudy 3500 ft
Overcast 5500 ft
Dew Point 61 °F
Humidity 58%
Rainfall 0.00 in
Snow Depth Not available.
6:51 AM 6:18 PM
Waning Crescent, 24% visible
METAR KOPF 211553Z 06011KT 10SM BKN035 OVC055 25/16 A3010 RMK AO2 SLP193 T02500161

Get Your Daily Forecast Email!

Thanks for signing up!

Be on the lookout for a verification email in your inbox.

You'll start receiving the daily forecast at 8 AM.

×

10-Day Weather Forecast

Almanac

Astronomy

Feb. 21, 2017 Rise Set
Actual Time
Civil Twilight
Nautical Twilight
Astronomical Twilight
Moon
Length of Visible Light
Length of Day
Tomorrow will be .
, % of the Moon is Illuminated

Today's Extremes

State Highs State Lows

Community

WunderPhotos

Upload Photos

1,962,540 photos uploaded!

WunderBlog® & News

Nearby

Air Quality

  Air Quality AQ Index Pollutant
Not available.

Snow Depth

Station Depth Elevation

Earthquake Activity

City Distance Mag. Time & Date
Minimum magnitude displayed is 2.5.

Coastal Water Temperatures

Place Temperature

Stations

Nearby Weather Stations

Station Location Temp. Windchill Dew Point Humidity Wind Precip. Elev Updated Type
                   

Watches & Warnings

There are currently no watches in effect.